sensor_id;sensor_type;location;lat;lon;timestamp;temperature;humidity
21338;DHT22;72379;50.880;4.350;2023-11-21T00:04:48;11.00;99.90
21338;DHT22;72379;50.880;4.350;2023-11-21T00:07:13;10.90;99.90
21338;DHT22;72379;50.880;4.350;2023-11-21T00:09:40;10.80;99.90
21338;DHT22;72379;50.880;4.350;2023-11-21T00:12:07;10.90;99.90
21338;DHT22;72379;50.880;4.350;2023-11-21T00:14:36;10.70;99.90
21338;DHT22;72379;50.880;4.350;2023-11-21T00:17:02;10.80;99.90
21338;DHT22;72379;50.880;4.350;2023-11-21T00:19:28;10.90;99.90
21338;DHT22;72379;50.880;4.350;2023-11-21T00:24:20;10.80;99.90
21338;DHT22;72379;50.880;4.350;2023-11-21T00:29:14;11.00;99.90
21338;DHT22;72379;50.880;4.350;2023-11-21T00:34:08;11.50;99.90
21338;DHT22;72379;50.880;4.350;2023-11-21T00:41:29;11.40;99.90
21338;DHT22;72379;50.880;4.350;2023-11-21T00:48:47;11.50;99.90
21338;DHT22;72379;50.880;4.350;2023-11-21T00:53:39;11.00;99.90
21338;DHT22;72379;50.880;4.350;2023-11-21T01:03:24;11.00;99.90
21338;DHT22;72379;50.880;4.350;2023-11-21T01:08:16;11.40;99.90
21338;DHT22;72379;50.880;4.350;2023-11-21T01:10:41;11.00;99.90
21338;DHT22;72379;50.880;4.350;2023-11-21T01:13:07;11.00;99.90
21338;DHT22;72379;50.880;4.350;2023-11-21T01:15:36;11.10;99.90
21338;DHT22;72379;50.880;4.350;2023-11-21T01:18:01;11.50;99.90
21338;DHT22;72379;50.880;4.350;2023-11-21T01:20:29;11.00;99.90
21338;DHT22;72379;50.880;4.350;2023-11-21T01:22:54;10.80;99.90
21338;DHT22;72379;50.880;4.350;2023-11-21T01:25:20;10.80;99.90
21338;DHT22;72379;50.880;4.350;2023-11-21T01:27:46;10.80;99.90
21338;DHT22;72379;50.880;4.350;2023-11-21T01:30:12;10.90;99.90
21338;DHT22;72379;50.880;4.350;2023-11-21T01:32:38;10.80;99.90
21338;DHT22;72379;50.880;4.350;2023-11-21T01:35:05;10.80;99.90
21338;DHT22;72379;50.880;4.350;2023-11-21T01:37:35;10.80;99.90
21338;DHT22;72379;50.880;4.350;2023-11-21T01:40:00;10.90;99.90
21338;DHT22;72379;50.880;4.350;2023-11-21T01:42:27;10.50;99.90
21338;DHT22;72379;50.880;4.350;2023-11-21T01:44:55;10.90;99.90
21338;DHT22;72379;50.880;4.350;2023-11-21T01:49:46;10.90;99.90
21338;DHT22;72379;50.880;4.350;2023-11-21T01:52:13;11.30;99.90
21338;DHT22;72379;50.880;4.350;2023-11-21T01:54:39;11.30;99.90
21338;DHT22;72379;50.880;4.350;2023-11-21T01:57:05;11.30;99.90
21338;DHT22;72379;50.880;4.350;2023-11-21T01:59:36;11.30;99.90
21338;DHT22;72379;50.880;4.350;2023-11-21T02:02:03;11.10;99.90
21338;DHT22;72379;50.880;4.350;2023-11-21T02:04:31;11.60;99.90
21338;DHT22;72379;50.880;4.350;2023-11-21T02:06:57;11.20;99.90
21338;DHT22;72379;50.880;4.350;2023-11-21T02:09:27;11.20;99.90
21338;DHT22;72379;50.880;4.350;2023-11-21T02:11:54;11.20;99.90
21338;DHT22;72379;50.880;4.350;2023-11-21T02:14:21;11.00;99.90
21338;DHT22;72379;50.880;4.350;2023-11-21T02:16:50;10.90;99.90
21338;DHT22;72379;50.880;4.350;2023-11-21T02:19:18;10.90;99.90
21338;DHT22;72379;50.880;4.350;2023-11-21T02:21:56;10.80;99.90
21338;DHT22;72379;50.880;4.350;2023-11-21T02:24:26;11.00;99.90
21338;DHT22;72379;50.880;4.350;2023-11-21T02:29:19;11.00;99.90
21338;DHT22;72379;50.880;4.350;2023-11-21T02:31:48;11.50;99.90
21338;DHT22;72379;50.880;4.350;2023-11-21T02:34:17;11.20;99.90
21338;DHT22;72379;50.880;4.350;2023-11-21T02:36:46;10.00;99.90
21338;DHT22;72379;50.880;4.350;2023-11-21T02:41:39;11.30;99.90
21338;DHT22;72379;50.880;4.350;2023-11-21T02:44:05;11.30;99.90
21338;DHT22;72379;50.880;4.350;2023-11-21T02:46:35;11.40;99.90
21338;DHT22;72379;50.880;4.350;2023-11-21T02:49:04;11.20;99.90
21338;DHT22;72379;50.880;4.350;2023-11-21T02:51:34;11.30;99.90
21338;DHT22;72379;50.880;4.350;2023-11-21T02:54:00;11.10;99.90
21338;DHT22;72379;50.880;4.350;2023-11-21T02:56:28;11.10;99.90
21338;DHT22;72379;50.880;4.350;2023-11-21T02:58:59;11.50;99.90
21338;DHT22;72379;50.880;4.350;2023-11-21T03:01:25;10.70;99.90
21338;DHT22;72379;50.880;4.350;2023-11-21T03:03:51;11.40;99.90
21338;DHT22;72379;50.880;4.350;2023-11-21T03:06:18;11.80;99.90
21338;DHT22;72379;50.880;4.350;2023-11-21T03:13:36;11.60;99.90
21338;DHT22;72379;50.880;4.350;2023-11-21T03:20:55;11.10;99.90
21338;DHT22;72379;50.880;4.350;2023-11-21T03:23:21;11.00;99.90
21338;DHT22;72379;50.880;4.350;2023-11-21T03:25:47;11.10;99.90
21338;DHT22;72379;50.880;4.350;2023-11-21T03:28:12;11.20;99.90
21338;DHT22;72379;50.880;4.350;2023-11-21T03:30:38;11.20;99.90
21338;DHT22;72379;50.880;4.350;2023-11-21T03:35:30;11.40;99.90
21338;DHT22;72379;50.880;4.350;2023-11-21T03:40:23;11.20;99.90
21338;DHT22;72379;50.880;4.350;2023-11-21T03:42:48;11.10;99.90
21338;DHT22;72379;50.880;4.350;2023-11-21T03:45:14;11.10;99.90
21338;DHT22;72379;50.880;4.350;2023-11-21T03:47:41;11.00;99.90
21338;DHT22;72379;50.880;4.350;2023-11-21T03:50:07;10.90;99.90
21338;DHT22;72379;50.880;4.350;2023-11-21T03:52:34;11.10;99.90
21338;DHT22;72379;50.880;4.350;2023-11-21T03:55:01;11.10;99.90
21338;DHT22;72379;50.880;4.350;2023-11-21T03:57:26;10.90;99.90
21338;DHT22;72379;50.880;4.350;2023-11-21T03:59:53;11.10;99.90
21338;DHT22;72379;50.880;4.350;2023-11-21T04:02:19;11.40;99.90
21338;DHT22;72379;50.880;4.350;2023-11-21T04:07:11;11.90;99.90
21338;DHT22;72379;50.880;4.350;2023-11-21T04:09:39;11.60;99.90
21338;DHT22;72379;50.880;4.350;2023-11-21T04:12:05;11.70;99.90
21338;DHT22;72379;50.880;4.350;2023-11-21T04:14:31;11.70;99.90
21338;DHT22;72379;50.880;4.350;2023-11-21T04:16:57;11.90;99.90
21338;DHT22;72379;50.880;4.350;2023-11-21T04:19:22;11.80;99.90
21338;DHT22;72379;50.880;4.350;2023-11-21T04:24:15;12.00;99.90
21338;DHT22;72379;50.880;4.350;2023-11-21T04:31:33;11.40;99.90
21338;DHT22;72379;50.880;4.350;2023-11-21T04:33:59;11.40;99.90
21338;DHT22;72379;50.880;4.350;2023-11-21T04:36:24;11.10;99.90
21338;DHT22;72379;50.880;4.350;2023-11-21T04:41:16;10.90;99.90
21338;DHT22;72379;50.880;4.350;2023-11-21T04:43:43;11.10;99.90
21338;DHT22;72379;50.880;4.350;2023-11-21T04:46:09;11.20;99.90
21338;DHT22;72379;50.880;4.350;2023-11-21T04:48:34;11.30;99.90
21338;DHT22;72379;50.880;4.350;2023-11-21T04:51:00;11.70;99.90
21338;DHT22;72379;50.880;4.350;2023-11-21T05:10:30;11.20;99.90
21338;DHT22;72379;50.880;4.350;2023-11-21T05:15:22;11.10;99.90
21338;DHT22;72379;50.880;4.350;2023-11-21T05:17:48;11.20;99.90
21338;DHT22;72379;50.880;4.350;2023-11-21T05:22:47;11.10;99.90
21338;DHT22;72379;50.880;4.350;2023-11-21T05:25:14;11.10;99.90
21338;DHT22;72379;50.880;4.350;2023-11-21T05:27:40;11.50;99.90
21338;DHT22;72379;50.880;4.350;2023-11-21T05:30:06;11.50;99.90
21338;DHT22;72379;50.880;4.350;2023-11-21T05:32:35;11.40;99.90
21338;DHT22;72379;50.880;4.350;2023-11-21T05:35:01;11.60;99.90
21338;DHT22;72379;50.880;4.350;2023-11-21T05:37:27;11.70;99.90
21338;DHT22;72379;50.880;4.350;2023-11-21T05:39:55;11.50;99.90
21338;DHT22;72379;50.880;4.350;2023-11-21T05:44:51;11.20;99.90
21338;DHT22;72379;50.880;4.350;2023-11-21T05:52:11;11.80;99.90
21338;DHT22;72379;50.880;4.350;2023-11-21T05:54:37;11.80;99.90
21338;DHT22;72379;50.880;4.350;2023-11-21T05:57:03;11.90;99.90
21338;DHT22;72379;50.880;4.350;2023-11-21T06:01:55;11.60;99.90
21338;DHT22;72379;50.880;4.350;2023-11-21T06:04:21;11.50;99.90
21338;DHT22;72379;50.880;4.350;2023-11-21T06:06:50;11.20;99.90
21338;DHT22;72379;50.880;4.350;2023-11-21T06:11:41;11.40;99.90
21338;DHT22;72379;50.880;4.350;2023-11-21T06:14:07;11.30;99.90
21338;DHT22;72379;50.880;4.350;2023-11-21T06:19:01;11.20;99.90
21338;DHT22;72379;50.880;4.350;2023-11-21T06:21:27;11.80;99.90
21338;DHT22;72379;50.880;4.350;2023-11-21T06:23:52;11.50;99.90
21338;DHT22;72379;50.880;4.350;2023-11-21T06:28:44;11.30;99.90
21338;DHT22;72379;50.880;4.350;2023-11-21T06:36:02;11.40;99.90
21338;DHT22;72379;50.880;4.350;2023-11-21T06:40:58;11.40;99.90
21338;DHT22;72379;50.880;4.350;2023-11-21T06:45:50;11.40;99.90
21338;DHT22;72379;50.880;4.350;2023-11-21T06:48:16;11.30;99.90
21338;DHT22;72379;50.880;4.350;2023-11-21T06:50:41;11.40;99.90
21338;DHT22;72379;50.880;4.350;2023-11-21T06:53:07;12.00;99.90
21338;DHT22;72379;50.880;4.350;2023-11-21T06:55:35;11.70;99.90
21338;DHT22;72379;50.880;4.350;2023-11-21T07:02:54;12.00;99.90
21338;DHT22;72379;50.880;4.350;2023-11-21T07:05:21;11.60;99.90
21338;DHT22;72379;50.880;4.350;2023-11-21T07:07:47;11.50;99.90
21338;DHT22;72379;50.880;4.350;2023-11-21T07:10:15;11.60;99.90
21338;DHT22;72379;50.880;4.350;2023-11-21T07:15:07;11.30;99.90
21338;DHT22;72379;50.880;4.350;2023-11-21T07:17:35;11.50;99.90
21338;DHT22;72379;50.880;4.350;2023-11-21T07:20:01;11.50;99.90
21338;DHT22;72379;50.880;4.350;2023-11-21T07:22:27;11.60;99.90
21338;DHT22;72379;50.880;4.350;2023-11-21T07:24:53;11.40;99.90
21338;DHT22;72379;50.880;4.350;2023-11-21T07:34:38;11.30;99.90
21338;DHT22;72379;50.880;4.350;2023-11-21T07:37:04;11.40;99.90
21338;DHT22;72379;50.880;4.350;2023-11-21T07:39:29;11.50;99.90
21338;DHT22;72379;50.880;4.350;2023-11-21T07:41:56;11.50;99.90
21338;DHT22;72379;50.880;4.350;2023-11-21T07:44:23;11.40;99.90
21338;DHT22;72379;50.880;4.350;2023-11-21T07:46:49;11.50;99.90
21338;DHT22;72379;50.880;4.350;2023-11-21T07:49:17;11.60;99.90
21338;DHT22;72379;50.880;4.350;2023-11-21T07:54:12;11.50;99.90
21338;DHT22;72379;50.880;4.350;2023-11-21T07:59:03;12.00;99.90
21338;DHT22;72379;50.880;4.350;2023-11-21T08:01:29;11.50;99.90
21338;DHT22;72379;50.880;4.350;2023-11-21T08:03:55;11.50;99.90
21338;DHT22;72379;50.880;4.350;2023-11-21T08:06:24;11.30;99.90
21338;DHT22;72379;50.880;4.350;2023-11-21T08:11:17;11.60;99.90
21338;DHT22;72379;50.880;4.350;2023-11-21T08:13:42;11.60;99.90
21338;DHT22;72379;50.880;4.350;2023-11-21T08:16:08;11.70;99.90
21338;DHT22;72379;50.880;4.350;2023-11-21T08:21:01;11.90;99.90
21338;DHT22;72379;50.880;4.350;2023-11-21T08:25:53;12.00;99.90
21338;DHT22;72379;50.880;4.350;2023-11-21T08:28:20;12.00;99.90
21338;DHT22;72379;50.880;4.350;2023-11-21T08:30:47;12.10;99.90
21338;DHT22;72379;50.880;4.350;2023-11-21T08:33:14;12.50;99.90
21338;DHT22;72379;50.880;4.350;2023-11-21T08:38:06;11.70;99.90
21338;DHT22;72379;50.880;4.350;2023-11-21T08:45:26;11.80;99.90
21338;DHT22;72379;50.880;4.350;2023-11-21T08:47:52;12.00;99.90
21338;DHT22;72379;50.880;4.350;2023-11-21T08:50:17;12.00;99.90
21338;DHT22;72379;50.880;4.350;2023-11-21T08:52:44;12.00;99.90
21338;DHT22;72379;50.880;4.350;2023-11-21T08:55:11;12.30;99.90
21338;DHT22;72379;50.880;4.350;2023-11-21T08:57:41;12.30;99.90
21338;DHT22;72379;50.880;4.350;2023-11-21T09:00:09;12.40;99.90
21338;DHT22;72379;50.880;4.350;2023-11-21T09:02:38;12.50;99.90
21338;DHT22;72379;50.880;4.350;2023-11-21T09:05:05;12.60;99.90
21338;DHT22;72379;50.880;4.350;2023-11-21T09:07:31;12.60;99.90
21338;DHT22;72379;50.880;4.350;2023-11-21T09:09:57;12.50;99.90
21338;DHT22;72379;50.880;4.350;2023-11-21T09:12:23;12.50;99.90
21338;DHT22;72379;50.880;4.350;2023-11-21T09:17:16;12.10;99.90
21338;DHT22;72379;50.880;4.350;2023-11-21T09:19:42;11.90;99.90
21338;DHT22;72379;50.880;4.350;2023-11-21T09:22:10;12.00;99.90
21338;DHT22;72379;50.880;4.350;2023-11-21T09:24:36;12.10;99.90
21338;DHT22;72379;50.880;4.350;2023-11-21T09:29:30;12.70;99.90
21338;DHT22;72379;50.880;4.350;2023-11-21T09:34:25;12.90;99.90
21338;DHT22;72379;50.880;4.350;2023-11-21T09:36:51;12.60;99.90
21338;DHT22;72379;50.880;4.350;2023-11-21T09:39:17;12.50;99.90
21338;DHT22;72379;50.880;4.350;2023-11-21T09:41:49;12.30;99.90
21338;DHT22;72379;50.880;4.350;2023-11-21T09:44:26;12.00;99.90
21338;DHT22;72379;50.880;4.350;2023-11-21T09:46:59;12.00;99.90
21338;DHT22;72379;50.880;4.350;2023-11-21T09:49:26;11.70;99.90
21338;DHT22;72379;50.880;4.350;2023-11-21T09:51:55;11.60;99.90
21338;DHT22;72379;50.880;4.350;2023-11-21T09:54:23;11.20;99.90
21338;DHT22;72379;50.880;4.350;2023-11-21T09:56:50;11.10;99.90
21338;DHT22;72379;50.880;4.350;2023-11-21T09:59:16;10.80;99.90
21338;DHT22;72379;50.880;4.350;2023-11-21T10:01:42;10.70;99.90
21338;DHT22;72379;50.880;4.350;2023-11-21T10:04:09;10.70;99.90
21338;DHT22;72379;50.880;4.350;2023-11-21T10:06:41;10.70;99.90
21338;DHT22;72379;50.880;4.350;2023-11-21T10:09:10;10.60;99.90
21338;DHT22;72379;50.880;4.350;2023-11-21T10:11:41;10.80;99.90
21338;DHT22;72379;50.880;4.350;2023-11-21T10:14:10;10.90;99.90
21338;DHT22;72379;50.880;4.350;2023-11-21T10:16:37;10.90;99.90
21338;DHT22;72379;50.880;4.350;2023-11-21T10:19:04;10.90;99.90
21338;DHT22;72379;50.880;4.350;2023-11-21T10:21:32;11.20;99.90
21338;DHT22;72379;50.880;4.350;2023-11-21T10:23:58;11.40;99.90
21338;DHT22;72379;50.880;4.350;2023-11-21T10:26:26;11.70;99.90
21338;DHT22;72379;50.880;4.350;2023-11-21T10:28:57;11.70;99.90
21338;DHT22;72379;50.880;4.350;2023-11-21T10:31:23;11.70;99.90
21338;DHT22;72379;50.880;4.350;2023-11-21T10:36:29;12.00;99.90
21338;DHT22;72379;50.880;4.350;2023-11-21T10:38:55;12.20;99.90
21338;DHT22;72379;50.880;4.350;2023-11-21T10:43:48;12.30;99.90
21338;DHT22;72379;50.880;4.350;2023-11-21T10:46:14;12.20;99.90
21338;DHT22;72379;50.880;4.350;2023-11-21T10:48:45;12.10;99.90
21338;DHT22;72379;50.880;4.350;2023-11-21T10:53:40;12.60;99.90
21338;DHT22;72379;50.880;4.350;2023-11-21T10:56:08;12.50;99.90
21338;DHT22;72379;50.880;4.350;2023-11-21T10:58:37;12.80;99.90
21338;DHT22;72379;50.880;4.350;2023-11-21T11:01:06;13.10;99.90
21338;DHT22;72379;50.880;4.350;2023-11-21T11:03:32;13.30;99.90
21338;DHT22;72379;50.880;4.350;2023-11-21T11:06:00;12.60;99.90
21338;DHT22;72379;50.880;4.350;2023-11-21T11:08:26;12.80;99.90
21338;DHT22;72379;50.880;4.350;2023-11-21T11:15:48;12.00;99.90
21338;DHT22;72379;50.880;4.350;2023-11-21T11:20:43;12.20;99.90
21338;DHT22;72379;50.880;4.350;2023-11-21T11:25:53;12.50;99.90
21338;DHT22;72379;50.880;4.350;2023-11-21T11:28:55;12.90;99.90
21338;DHT22;72379;50.880;4.350;2023-11-21T11:31:40;13.00;99.90
21338;DHT22;72379;50.880;4.350;2023-11-21T11:34:15;12.60;99.90
21338;DHT22;72379;50.880;4.350;2023-11-21T11:36:53;12.40;99.90
21338;DHT22;72379;50.880;4.350;2023-11-21T11:39:35;12.20;99.90
21338;DHT22;72379;50.880;4.350;2023-11-21T11:42:03;12.00;99.90
21338;DHT22;72379;50.880;4.350;2023-11-21T11:47:26;11.70;99.90
21338;DHT22;72379;50.880;4.350;2023-11-21T11:52:44;11.70;99.90
21338;DHT22;72379;50.880;4.350;2023-11-21T11:55:12;12.00;99.90
21338;DHT22;72379;50.880;4.350;2023-11-21T11:57:40;12.00;99.90
21338;DHT22;72379;50.880;4.350;2023-11-21T12:00:23;11.80;99.90
21338;DHT22;72379;50.880;4.350;2023-11-21T12:03:01;11.90;99.90
21338;DHT22;72379;50.880;4.350;2023-11-21T12:05:31;12.20;99.90
21338;DHT22;72379;50.880;4.350;2023-11-21T12:08:00;12.20;99.90
21338;DHT22;72379;50.880;4.350;2023-11-21T12:10:29;12.30;99.90
21338;DHT22;72379;50.880;4.350;2023-11-21T12:13:06;12.30;99.90
21338;DHT22;72379;50.880;4.350;2023-11-21T12:15:33;12.40;99.90
21338;DHT22;72379;50.880;4.350;2023-11-21T12:18:00;12.30;99.90
21338;DHT22;72379;50.880;4.350;2023-11-21T12:22:57;11.90;99.90
21338;DHT22;72379;50.880;4.350;2023-11-21T12:25:30;11.80;99.90
21338;DHT22;72379;50.880;4.350;2023-11-21T12:27:58;12.70;99.90
21338;DHT22;72379;50.880;4.350;2023-11-21T12:30:27;12.00;99.90
21338;DHT22;72379;50.880;4.350;2023-11-21T12:33:02;11.90;99.90
21338;DHT22;72379;50.880;4.350;2023-11-21T12:35:30;11.80;99.90
21338;DHT22;72379;50.880;4.350;2023-11-21T12:37:56;11.80;99.90
21338;DHT22;72379;50.880;4.350;2023-11-21T12:40:25;11.30;99.90
21338;DHT22;72379;50.880;4.350;2023-11-21T12:42:56;12.20;99.90
21338;DHT22;72379;50.880;4.350;2023-11-21T12:45:24;12.40;99.90
21338;DHT22;72379;50.880;4.350;2023-11-21T12:48:04;12.10;99.90
21338;DHT22;72379;50.880;4.350;2023-11-21T12:50:34;11.60;99.90
21338;DHT22;72379;50.880;4.350;2023-11-21T12:55:32;11.80;99.90
21338;DHT22;72379;50.880;4.350;2023-11-21T12:58:01;11.80;99.90
21338;DHT22;72379;50.880;4.350;2023-11-21T13:00:43;11.70;99.90
21338;DHT22;72379;50.880;4.350;2023-11-21T13:03:10;11.70;99.90
21338;DHT22;72379;50.880;4.350;2023-11-21T13:05:39;11.90;99.90
21338;DHT22;72379;50.880;4.350;2023-11-21T13:08:08;12.10;99.90
21338;DHT22;72379;50.880;4.350;2023-11-21T13:10:38;12.20;99.90
21338;DHT22;72379;50.880;4.350;2023-11-21T13:13:06;12.20;99.90
21338;DHT22;72379;50.880;4.350;2023-11-21T13:15:41;12.20;99.90
21338;DHT22;72379;50.880;4.350;2023-11-21T13:18:13;12.40;99.90
21338;DHT22;72379;50.880;4.350;2023-11-21T13:20:40;12.30;99.90
21338;DHT22;72379;50.880;4.350;2023-11-21T13:23:10;12.10;99.90
21338;DHT22;72379;50.880;4.350;2023-11-21T13:25:42;11.90;99.90
21338;DHT22;72379;50.880;4.350;2023-11-21T13:28:08;11.90;99.90
21338;DHT22;72379;50.880;4.350;2023-11-21T13:30:38;12.10;99.90
21338;DHT22;72379;50.880;4.350;2023-11-21T13:33:06;12.30;99.90
21338;DHT22;72379;50.880;4.350;2023-11-21T13:35:34;12.30;99.90
21338;DHT22;72379;50.880;4.350;2023-11-21T13:38:05;12.20;99.90
21338;DHT22;72379;50.880;4.350;2023-11-21T13:40:32;12.00;99.90
21338;DHT22;72379;50.880;4.350;2023-11-21T13:43:00;12.00;99.90
21338;DHT22;72379;50.880;4.350;2023-11-21T13:45:29;11.90;99.90
21338;DHT22;72379;50.880;4.350;2023-11-21T13:50:25;11.90;99.90
21338;DHT22;72379;50.880;4.350;2023-11-21T13:52:59;11.90;99.90
21338;DHT22;72379;50.880;4.350;2023-11-21T13:55:34;12.00;99.90
21338;DHT22;72379;50.880;4.350;2023-11-21T13:58:01;11.70;99.90
21338;DHT22;72379;50.880;4.350;2023-11-21T14:08:42;11.90;99.90
21338;DHT22;72379;50.880;4.350;2023-11-21T14:16:03;12.10;99.90
21338;DHT22;72379;50.880;4.350;2023-11-21T14:23:42;11.90;99.90
21338;DHT22;72379;50.880;4.350;2023-11-21T14:26:08;11.90;99.90
21338;DHT22;72379;50.880;4.350;2023-11-21T14:28:34;11.90;99.90
21338;DHT22;72379;50.880;4.350;2023-11-21T14:31:01;11.90;99.90
21338;DHT22;72379;50.880;4.350;2023-11-21T14:33:29;11.90;99.90
21338;DHT22;72379;50.880;4.350;2023-11-21T14:50:42;11.70;99.90
21338;DHT22;72379;50.880;4.350;2023-11-21T14:53:11;11.40;99.90
21338;DHT22;72379;50.880;4.350;2023-11-21T15:00:54;11.60;99.90
21338;DHT22;72379;50.880;4.350;2023-11-21T15:03:24;11.70;99.90
21338;DHT22;72379;50.880;4.350;2023-11-21T15:06:09;11.80;99.90
21338;DHT22;72379;50.880;4.350;2023-11-21T15:08:52;11.90;99.90
21338;DHT22;72379;50.880;4.350;2023-11-21T15:16:22;11.80;99.90
21338;DHT22;72379;50.880;4.350;2023-11-21T15:21:14;11.80;99.90
21338;DHT22;72379;50.880;4.350;2023-11-21T15:35:54;11.40;99.90
21338;DHT22;72379;50.880;4.350;2023-11-21T15:40:47;11.40;99.90
21338;DHT22;72379;50.880;4.350;2023-11-21T15:45:39;11.40;99.90
21338;DHT22;72379;50.880;4.350;2023-11-21T15:48:05;11.30;99.90
21338;DHT22;72379;50.880;4.350;2023-11-21T15:52:59;11.30;99.90
21338;DHT22;72379;50.880;4.350;2023-11-21T15:55:25;11.30;99.90
21338;DHT22;72379;50.880;4.350;2023-11-21T16:00:17;11.40;99.90
21338;DHT22;72379;50.880;4.350;2023-11-21T16:02:46;11.10;99.90
21338;DHT22;72379;50.880;4.350;2023-11-21T16:05:11;11.10;99.90
21338;DHT22;72379;50.880;4.350;2023-11-21T16:10:09;11.20;99.90
21338;DHT22;72379;50.880;4.350;2023-11-21T16:12:41;11.30;99.90
21338;DHT22;72379;50.880;4.350;2023-11-21T16:15:07;11.50;99.90
21338;DHT22;72379;50.880;4.350;2023-11-21T16:17:37;11.00;99.90
21338;DHT22;72379;50.880;4.350;2023-11-21T16:20:04;11.40;99.90
21338;DHT22;72379;50.880;4.350;2023-11-21T16:27:36;11.30;99.90
21338;DHT22;72379;50.880;4.350;2023-11-21T16:30:04;11.20;99.90
21338;DHT22;72379;50.880;4.350;2023-11-21T16:34:57;11.30;99.90
21338;DHT22;72379;50.880;4.350;2023-11-21T16:37:25;11.20;99.90
21338;DHT22;72379;50.880;4.350;2023-11-21T16:39:52;11.40;99.90
21338;DHT22;72379;50.880;4.350;2023-11-21T16:44:43;11.20;99.90
21338;DHT22;72379;50.880;4.350;2023-11-21T16:47:09;11.30;99.90
21338;DHT22;72379;50.880;4.350;2023-11-21T16:49:35;11.20;99.90
21338;DHT22;72379;50.880;4.350;2023-11-21T16:52:05;11.20;99.90
21338;DHT22;72379;50.880;4.350;2023-11-21T16:56:59;11.40;99.90
21338;DHT22;72379;50.880;4.350;2023-11-21T16:59:24;11.50;99.90
21338;DHT22;72379;50.880;4.350;2023-11-21T17:01:50;11.50;99.90
21338;DHT22;72379;50.880;4.350;2023-11-21T17:09:12;11.30;99.90
21338;DHT22;72379;50.880;4.350;2023-11-21T17:11:40;11.40;99.90
21338;DHT22;72379;50.880;4.350;2023-11-21T17:14:08;11.40;99.90
21338;DHT22;72379;50.880;4.350;2023-11-21T17:16:34;11.40;99.90
21338;DHT22;72379;50.880;4.350;2023-11-21T17:19:01;11.30;99.90
21338;DHT22;72379;50.880;4.350;2023-11-21T17:21:29;11.40;99.90
21338;DHT22;72379;50.880;4.350;2023-11-21T17:23:57;11.50;99.90
21338;DHT22;72379;50.880;4.350;2023-11-21T17:28:50;11.60;99.90
21338;DHT22;72379;50.880;4.350;2023-11-21T17:31:16;11.20;99.90
21338;DHT22;72379;50.880;4.350;2023-11-21T17:33:44;11.30;99.90
21338;DHT22;72379;50.880;4.350;2023-11-21T17:38:40;11.20;99.90
21338;DHT22;72379;50.880;4.350;2023-11-21T17:41:06;11.30;99.90
21338;DHT22;72379;50.880;4.350;2023-11-21T17:46:02;11.00;99.90
21338;DHT22;72379;50.880;4.350;2023-11-21T17:48:29;11.20;99.90
21338;DHT22;72379;50.880;4.350;2023-11-21T17:51:03;11.10;99.90
21338;DHT22;72379;50.880;4.350;2023-11-21T17:53:28;11.20;99.90
21338;DHT22;72379;50.880;4.350;2023-11-21T17:55:54;12.20;99.90
21338;DHT22;72379;50.880;4.350;2023-11-21T18:03:13;11.50;99.90
21338;DHT22;72379;50.880;4.350;2023-11-21T18:05:39;11.20;99.90
21338;DHT22;72379;50.880;4.350;2023-11-21T18:08:05;11.30;99.90
21338;DHT22;72379;50.880;4.350;2023-11-21T18:10:32;11.70;99.90
21338;DHT22;72379;50.880;4.350;2023-11-21T18:12:57;10.90;99.90
21338;DHT22;72379;50.880;4.350;2023-11-21T18:17:50;11.60;99.90
21338;DHT22;72379;50.880;4.350;2023-11-21T18:27:35;11.10;99.90
21338;DHT22;72379;50.880;4.350;2023-11-21T18:30:01;11.20;99.90
21338;DHT22;72379;50.880;4.350;2023-11-21T18:34:54;11.10;99.90
21338;DHT22;72379;50.880;4.350;2023-11-21T18:37:21;11.30;99.90
21338;DHT22;72379;50.880;4.350;2023-11-21T18:39:49;11.60;99.90
21338;DHT22;72379;50.880;4.350;2023-11-21T18:44:42;11.60;99.90
21338;DHT22;72379;50.880;4.350;2023-11-21T18:52:06;11.60;99.90
21338;DHT22;72379;50.880;4.350;2023-11-21T18:54:41;11.60;99.90
21338;DHT22;72379;50.880;4.350;2023-11-21T18:57:08;11.40;99.90
21338;DHT22;72379;50.880;4.350;2023-11-21T18:59:34;11.20;99.90
21338;DHT22;72379;50.880;4.350;2023-11-21T19:02:00;10.70;99.90
21338;DHT22;72379;50.880;4.350;2023-11-21T19:04:33;10.50;99.90
21338;DHT22;72379;50.880;4.350;2023-11-21T19:06:59;10.30;99.90
21338;DHT22;72379;50.880;4.350;2023-11-21T19:09:27;10.70;99.90
21338;DHT22;72379;50.880;4.350;2023-11-21T19:11:55;10.70;99.90
21338;DHT22;72379;50.880;4.350;2023-11-21T19:14:21;10.80;99.90
21338;DHT22;72379;50.880;4.350;2023-11-21T19:16:47;10.70;99.90
21338;DHT22;72379;50.880;4.350;2023-11-21T19:19:14;10.60;99.90
21338;DHT22;72379;50.880;4.350;2023-11-21T19:24:10;10.80;99.90
21338;DHT22;72379;50.880;4.350;2023-11-21T19:26:40;10.40;99.90
21338;DHT22;72379;50.880;4.350;2023-11-21T19:29:05;10.40;99.90
21338;DHT22;72379;50.880;4.350;2023-11-21T19:34:00;10.60;99.90
21338;DHT22;72379;50.880;4.350;2023-11-21T19:36:25;10.80;99.90
21338;DHT22;72379;50.880;4.350;2023-11-21T19:38:51;10.40;99.90
21338;DHT22;72379;50.880;4.350;2023-11-21T19:41:20;10.60;99.90
21338;DHT22;72379;50.880;4.350;2023-11-21T19:43:48;10.40;99.90
21338;DHT22;72379;50.880;4.350;2023-11-21T19:48:41;10.50;99.90
21338;DHT22;72379;50.880;4.350;2023-11-21T19:51:08;10.30;99.90
21338;DHT22;72379;50.880;4.350;2023-11-21T19:53:34;10.20;99.90
21338;DHT22;72379;50.880;4.350;2023-11-21T19:56:06;10.30;99.90
21338;DHT22;72379;50.880;4.350;2023-11-21T19:58:35;10.30;99.90
21338;DHT22;72379;50.880;4.350;2023-11-21T20:05:54;10.40;99.90
21338;DHT22;72379;50.880;4.350;2023-11-21T20:10:45;10.60;99.90
21338;DHT22;72379;50.880;4.350;2023-11-21T20:13:12;10.60;99.90
21338;DHT22;72379;50.880;4.350;2023-11-21T20:15:39;10.50;99.90
21338;DHT22;72379;50.880;4.350;2023-11-21T20:18:06;10.20;99.90
21338;DHT22;72379;50.880;4.350;2023-11-21T20:20:32;10.00;99.90
21338;DHT22;72379;50.880;4.350;2023-11-21T20:22:58;10.00;99.90
21338;DHT22;72379;50.880;4.350;2023-11-21T20:25:27;10.00;99.90
21338;DHT22;72379;50.880;4.350;2023-11-21T20:27:54;10.00;99.90
21338;DHT22;72379;50.880;4.350;2023-11-21T20:30:20;9.60;99.90
21338;DHT22;72379;50.880;4.350;2023-11-21T20:35:17;9.50;99.90
21338;DHT22;72379;50.880;4.350;2023-11-21T20:37:44;9.30;99.90
21338;DHT22;72379;50.880;4.350;2023-11-21T20:42:38;9.20;99.90
21338;DHT22;72379;50.880;4.350;2023-11-21T20:45:11;9.40;99.90
21338;DHT22;72379;50.880;4.350;2023-11-21T20:47:39;9.30;99.90
21338;DHT22;72379;50.880;4.350;2023-11-21T20:50:06;9.40;99.90
21338;DHT22;72379;50.880;4.350;2023-11-21T20:54:59;9.40;99.90
21338;DHT22;72379;50.880;4.350;2023-11-21T20:57:25;9.40;99.90
21338;DHT22;72379;50.880;4.350;2023-11-21T20:59:50;9.20;99.90
21338;DHT22;72379;50.880;4.350;2023-11-21T21:02:17;9.10;99.90
21338;DHT22;72379;50.880;4.350;2023-11-21T21:04:43;9.00;99.90